Date,TemperatureHighF,TemperatureAvgF,TemperatureLowF,DewpointHighF,DewpointAvgF,DewpointLowF,HumidityHigh,HumidityAvg,HumidityLow,PressureMaxIn,PressureMinIn,WindSpeedMaxMPH,WindSpeedAvgMPH,GustSpeedMaxMPH,PrecipitationSumIn
2013-8-2,78,72,63,65,63,58,87,73,57,29.90,29.82,10,4,18,8.79
2013-8-3,87,73,58,63,58,50,93,64,30,30.00,29.90,4,1,12,0.00
2013-8-4,97,74,55,60,56,51,87,55,26,30.18,30.06,3,1,11,0.00
2013-8-5,76,65,57,60,55,51,85,71,46,30.11,29.95,3,1,8,0.00
2013-8-6,82,72,65,69,64,57,87,75,61,29.95,29.85,4,1,11,0.00
2013-8-7,88,75,65,73,68,62,95,78,55,29.92,29.80,8,2,17,0.25
2013-8-8,89,73,61,65,58,46,88,63,28,30.03,29.91,3,1,11,0.00
2013-8-9,87,72,57,62,58,53,90,64,36,30.00,29.92,6,1,16,0.00
2013-8-10,89,73,59,61,57,52,84,60,30,30.14,30.00,3,1,9,0.00
2013-8-11,84,72,62,64,58,54,87,65,38,30.11,30.02,4,1,8,0.00
2013-8-12,74,68,65,68,63,59,91,83,77,30.05,29.84,4,1,11,0.00
2013-8-13,75,64,54,62,50,43,91,64,36,30.07,29.85,5,1,15,0.01
2013-8-14,55,52,50,45,44,44,82,76,68,30.10,30.07,1,0,4,0.00
2013-8-15,78,64,50,57,52,46,90,67,44,30.15,30.06,4,1,8,0.00
2013-8-16,92,71,52,58,52,46,89,59,22,30.19,30.09,3,0,4,0.00
2013-8-17,93,73,54,63,54,47,89,58,22,30.25,30.17,4,1,8,0.00
2013-8-18,92,73,55,62,56,51,88,60,28,30.22,30.09,4,0,8,0.00
2013-8-19,91,80,59,64,58,50,88,50,28,30.11,30.01,5,2,12,0.00
2013-8-20,92,76,63,68,62,58,84,65,38,30.12,30.04,6,2,14,0.00
2013-8-21,93,79,68,70,65,62,84,65,38,30.11,29.98,7,2,16,0.00
2013-8-22,87,77,67,70,67,62,91,73,49,30.06,29.90,6,1,15,0.28
2013-8-23,92,73,57,63,59,53,89,66,34,30.20,30.06,3,1,12,0.00
2013-8-24,95,74,57,64,57,52,89,61,25,30.31,30.20,3,0,9,0.00
2013-8-25,93,77,63,68,63,57,86,64,42,30.27,30.12,7,3,16,0.00
2013-8-26,91,79,71,72,67,63,81,68,51,30.13,29.96,6,3,15,0.00
2013-8-27,86,77,72,77,73,70,97,87,73,29.99,29.82,7,1,17,3.26
2013-8-28,93,77,70,75,71,65,98,83,50,30.02,29.78,4,1,11,0.01
2013-8-29,99,80,67,73,68,64,95,72,36,30.09,29.99,3,0,7,0.00
2013-8-30,91,79,70,74,70,66,89,75,51,30.00,29.75,8,3,17,0.00
2013-8-31,82,76,70,70,68,66,89,75,62,29.87,29.77,4,1,11,0.00
2013-9-1,80,75,71,68,68,67,87,78,67,29.85,29.81,1,0,4,0.01
2013-9-2,71,71,71,67,67,67,87,87,87,29.81,29.81,0,0,4,0.01
2013-9-3,79,72,71,67,64,53,87,78,41,29.96,29.81,3,1,8,0.01
2013-9-4,78,78,78,55,55,55,45,45,45,29.96,29.96,1,1,8,0.00
2013-9-5,84,74,54,55,53,45,75,48,29,30.25,29.96,2,1,8,0.02
2013-9-6,84,65,50,56,51,46,88,63,33,30.26,30.03,5,1,10,0.00
2013-9-7,81,70,62,71,62,52,89,76,66,30.04,29.88,5,2,12,0.15
2013-9-8,82,71,58,68,59,50,94,69,37,30.11,29.93,6,2,18,0.00
2013-9-9,89,69,55,72,62,50,91,79,55,30.07,29.86,3,1,8,0.07
2013-9-10,97,84,73,72,69,64,90,64,35,29.99,29.83,8,4,18,0.00
2013-9-11,95,80,70,72,67,63,84,66,42,30.01,29.93,5,2,16,0.02
2013-9-12,86,72,66,65,61,53,94,72,35,29.94,29.86,4,2,13,0.09
2013-9-13,70,66,48,59,54,41,81,67,36,30.14,29.89,2,1,8,0.12
2013-9-14,76,57,42,47,42,38,88,63,28,30.18,30.06,5,1,14,0.00
2013-9-15,62,57,52,55,50,44,93,77,62,30.82,30.03,4,1,8,0.05
2013-9-16,71,57,46,54,48,39,95,73,38,30.38,30.12,3,1,12,0.01
2013-9-17,78,56,38,52,44,34,90,68,36,30.40,30.20,4,1,11,0.00
2013-9-18,83,64,47,58,51,42,92,65,36,30.21,30.00,5,1,14,0.00
2013-9-19,83,71,63,69,63,57,90,77,60,30.02,29.85,5,2,15,0.01
2013-9-20,78,72,68,72,67,65,95,86,72,29.86,29.72,8,2,18,0.00
2013-9-21,74,63,55,65,53,45,92,73,42,29.89,29.68,6,2,15,0.01
2013-9-22,63,55,47,46,43,40,80,65,46,30.09,29.89,3,1,11,0.00
2013-9-23,71,54,42,46,42,38,90,67,36,30.19,30.08,4,1,12,0.00
2013-9-24,81,59,41,52,45,38,91,65,30,30.15,29.99,4,1,11,0.00
2013-9-25,62,62,62,49,49,49,63,63,63,30.00,30.00,1,1,4,0.00
2013-9-26,62,62,62,49,49,49,63,63,63,30.00,30.00,1,1,4,0.00
2013-9-27,62,62,62,49,49,49,63,63,63,30.00,30.00,1,1,4,0.00
2013-9-28,62,62,62,49,49,49,63,63,63,30.00,30.00,1,1,4,0.00
2013-9-29,62,62,62,49,49,49,63,63,63,30.00,30.00,1,1,4,0.00
2013-9-30,62,62,62,49,49,49,63,63,63,30.00,30.00,1,1,4,0.00
2013-10-1,62,62,62,49,49,49,63,63,63,30.00,30.00,1,1,4,0.00
2013-10-2,86,63,55,49,48,32,73,59,15,30.06,30.00,1,0,5,0.02
2013-10-3,86,68,53,67,58,46,83,72,53,30.06,29.89,6,1,16,0.00
2013-10-4,84,72,65,70,66,62,95,82,59,30.04,29.89,4,1,11,0.40
2013-10-5,72,68,63,69,65,61,96,90,85,30.03,29.98,4,2,10,0.51
2013-10-6,72,70,54,67,65,52,95,86,85,29.98,29.69,3,3,8,0.51
2013-10-7,64,53,47,54,48,44,96,84,53,29.88,29.67,8,4,23,0.02
2013-10-8,77,57,44,50,45,42,94,71,33,30.25,30.08,4,1,8,0.01
2013-10-9,80,64,47,53,48,44,92,61,29,30.30,30.19,3,1,11,0.00
2013-10-10,83,60,43,58,46,40,93,66,24,30.22,30.11,4,0,10,0.00
2013-10-11,54,49,45,45,44,41,86,81,73,30.12,30.10,1,0,2,0.00
2013-10-12,85,65,49,58,51,45,94,65,30,30.07,29.99,7,1,11,0.00
2013-10-13,73,60,49,59,45,41,90,59,34,30.35,30.07,5,1,12,0.00
2013-10-14,74,55,44,46,42,36,90,66,26,30.41,30.26,4,1,12,0.00
2013-10-15,68,54,42,60,49,38,96,84,67,30.27,29.79,4,1,14,0.13
2013-10-16,62,54,51,60,51,47,97,87,75,29.88,29.78,8,4,17,0.04
2013-10-17,53,51,44,52,49,42,97,95,92,29.88,29.72,4,1,11,0.40
2013-10-18,66,50,42,47,43,40,98,79,40,29.89,29.81,7,3,17,0.01
2013-10-19,58,46,41,44,40,34,92,80,46,29.87,29.71,8,2,17,0.04
2013-10-20,61,49,40,45,41,38,95,76,46,29.88,29.74,6,2,21,0.14
2013-10-21,57,50,41,50,43,30,94,76,60,29.83,29.75,11,4,24,0.17
2013-10-22,52,42,33,35,31,27,81,65,43,29.88,29.83,6,3,21,0.00
2013-10-23,52,41,33,37,31,26,89,70,42,29.91,29.81,6,1,17,0.00
2013-10-24,51,38,32,36,31,27,93,77,50,30.14,29.90,6,2,15,0.00
2013-10-25,52,40,32,36,30,28,92,71,44,30.29,29.99,8,3,18,0.01
2013-10-26,53,45,40,42,34,28,83,66,53,29.99,29.71,11,6,27,0.11
2013-10-29,41,39,39,34,30,30,78,72,71,30.41,29.96,5,2,8,0.11
2013-10-30,68,49,33,52,41,30,93,74,52,30.21,29.92,3,0,5,0.01
2013-10-31,61,60,54,61,59,51,99,98,88,29.91,29.20,8,3,16,1.41
2013-11-1,59,46,32,59,43,30,99,87,52,30.29,29.19,13,4,27,3.38
2013-11-2,47,44,38,45,42,34,97,90,81,30.05,29.63,4,1,12,0.20
2013-11-3,51,38,32,38,33,29,91,83,60,30.33,30.11,11,1,11,0.00
2013-11-4,51,42,33,37,31,25,88,65,37,30.33,29.53,18,5,18,0.00
2013-11-5,60,52,46,47,44,36,82,74,62,30.33,29.53,11,4,11,0.00
2013-11-6,57,52,42,54,48,38,97,85,64,32.69,29.75,29,9,29,0.48
2013-11-7,47,40,35,38,31,26,89,73,48,30.58,27.73,18,8,18,0.00
2013-11-8,52,38,30,31,28,25,85,67,39,30.16,30.06,12,4,12,0.00
2013-11-9,53,46,38,42,36,29,75,66,56,32.52,30.16,29,10,29,0.00
2013-11-10,51,42,35,36,32,28,80,66,47,32.52,30.04,24,8,24,0.00
2013-11-11,43,36,27,39,31,20,92,82,73,32.40,30.04,15,6,15,0.22
2013-11-12,36,28,22,26,20,17,88,72,50,30.14,30.14,14,4,14,0.00
2013-11-13,44,31,21,26,19,13,86,64,38,30.14,30.14,24,10,24,0.00
2013-11-14,53,40,32,28,24,20,62,52,38,32.50,29.91,21,10,21,0.00
2013-11-15,56,45,40,30,28,25,63,51,33,30.02,29.95,17,6,17,0.00
2013-11-16,58,48,38,53,42,29,93,77,63,30.03,27.67,20,6,20,0.07
2013-11-17,64,57,42,60,54,39,98,91,83,29.70,29.09,34,10,42,0.91
2013-11-18,46,39,35,42,30,24,87,71,64,30.10,27.74,31,12,31,0.80
2013-11-19,50,36,30,27,24,22,77,62,38,30.23,27.74,14,4,14,0.80
2013-11-20,50,36,26,41,27,22,89,71,41,30.41,29.47,16,4,27,0.80
2013-11-21,52,46,39,43,39,33,94,78,69,30.22,29.58,13,5,29,0.99
2013-11-22,45,38,27,44,35,23,99,87,66,30.22,30.11,17,5,17,1.04
2013-11-23,30,24,16,24,16,8,90,73,44,30.11,30.11,21,9,21,1.04
2013-11-24,26,19,14,14,10,8,81,69,48,30.56,30.11,15,6,15,1.04
2013-11-25,33,26,20,27,14,4,91,61,39,32.89,30.53,26,12,26,1.04
2013-11-26,46,33,29,42,30,25,93,88,72,32.89,29.35,16,6,27,1.04
2013-11-27,45,42,17,39,35,10,82,75,55,33.73,29.24,15,8,25,0.24
2013-11-28,39,36,24,33,30,18,87,80,73,30.41,29.95,4,3,7,0.00
2013-11-29,38,27,23,26,22,19,89,80,60,30.65,30.40,4,0,6,0.00
2013-11-30,49,36,26,31,26,19,81,67,47,30.52,30.06,7,2,14,0.00
2013-12-1,42,37,33,35,31,29,91,80,68,30.06,30.01,5,1,7,0.01
2013-12-2,46,34,28,32,28,22,90,77,48,30.02,29.89,8,1,8,0.00
2013-12-3,35,32,26,34,28,21,96,88,80,29.92,29.83,13,4,13,0.17
2013-12-4,57,45,34,55,44,33,99,96,90,29.87,29.56,20,4,20,0.06
2013-12-5,58,40,29,55,33,20,94,75,57,30.14,29.56,27,11,27,0.01
2013-12-6,29,24,18,21,15,10,74,69,64,30.40,30.13,14,6,14,0.00
2013-12-7,26,19,13,13,9,6,77,65,47,30.60,30.39,17,5,17,0.00
2013-12-8,26,19,12,23,12,6,89,75,59,30.59,29.98,15,4,15,0.00
2013-12-9,30,25,16,26,21,6,94,82,65,30.08,29.84,26,11,26,0.00
2013-12-10,23,15,9,16,8,1,86,74,48,30.16,29.89,24,8,24,0.00
2013-12-11,22,15,5,15,8,-2,87,74,56,30.43,30.15,14,6,14,0.00
2013-12-12,20,13,2,16,7,-3,86,77,61,30.43,30.13,23,8,23,0.00
2013-12-13,29,24,19,20,18,14,86,78,64,30.30,30.10,16,6,16,0.00
2013-12-14,22,20,16,18,16,13,91,87,81,30.28,29.83,23,8,23,0.00
2013-12-15,23,18,9,20,13,2,92,81,68,30.00,29.79,19,7,19,0.00
2013-12-16,32,13,2,13,4,-3,82,69,44,30.17,29.99,12,3,12,0.00
2013-12-17,29,23,14,26,19,9,91,85,76,30.01,29.82,16,5,18,0.00
2013-12-18,31,26,24,24,20,13,92,77,61,30.08,29.82,17,7,17,0.00
2013-12-19,41,32,28,34,26,17,95,79,62,29.99,29.80,20,5,20,0.00
2013-12-20,34,32,31,33,32,29,99,97,95,29.91,29.74,12,1,12,0.07
2013-12-21,32,31,30,32,31,30,99,98,97,29.87,29.69,0,0,0,0.00
2013-12-22,35,31,26,34,30,24,99,95,91,29.98,29.58,8,1,8,0.04
2013-12-23,28,24,19,24,21,16,95,88,80,30.28,29.98,16,4,16,0.00
2013-12-24,21,15,8,16,9,4,88,79,62,30.51,30.27,11,3,11,0.00
2013-12-25,15,15,14,11,10,10,84,83,83,30.47,30.42,7,2,7,0.00
2013-12-26,29,25,21,25,21,17,86,86,85,30.33,30.22,0,0,2,0.00
2013-12-27,37,32,29,32,29,25,91,87,82,30.22,29.98,17,3,17,0.00
2013-12-28,50,40,30,37,33,28,93,76,60,30.08,29.84,19,6,19,0.01
2013-12-29,41,32,18,32,25,9,91,75,68,30.03,29.70,15,7,15,0.00
2013-12-30,23,17,13,10,7,3,73,63,54,30.26,30.03,12,4,12,0.00
2013-12-31,22,15,11,13,9,5,86,77,60,30.32,30.03,17,7,17,0.00
2014-1-1,16,12,10,9,5,1,84,72,58,30.40,30.26,17,5,17,0.00
2014-1-2,15,11,1,9,4,-6,81,74,65,30.30,30.15,22,10,22,0.00